sensor_id;sensor_type;location;lat;lon;timestamp;pressure;altitude;pressure_sealevel;temperature;humidity
73422;BME280;61637;47.760;-122.022;2023-07-31T00:00:01;101930.339;;;23.5;48.0
73422;BME280;61637;47.760;-122.022;2023-07-31T00:02:01;101930.339;;;23.5;48.0
73422;BME280;61637;47.760;-122.022;2023-07-31T00:04:01;101930.339;;;23.5;48.0
73422;BME280;61637;47.760;-122.022;2023-07-31T00:06:01;101930.339;;;23.4;49.0
73422;BME280;61637;47.760;-122.022;2023-07-31T00:08:01;101930.339;;;23.3;49.0
73422;BME280;61637;47.760;-122.022;2023-07-31T00:10:01;101930.339;;;23.3;49.0
73422;BME280;61637;47.760;-122.022;2023-07-31T00:12:01;101930.339;;;23.2;49.0
73422;BME280;61637;47.760;-122.022;2023-07-31T00:14:01;101930.339;;;23.2;50.0
73422;BME280;61637;47.760;-122.022;2023-07-31T00:16:01;101930.339;;;23.1;52.0
73422;BME280;61637;47.760;-122.022;2023-07-31T00:18:01;101930.339;;;22.9;51.0
73422;BME280;61637;47.760;-122.022;2023-07-31T00:20:01;101930.339;;;22.9;51.0
73422;BME280;61637;47.760;-122.022;2023-07-31T00:22:01;101930.339;;;22.8;51.0
73422;BME280;61637;47.760;-122.022;2023-07-31T00:24:01;101930.339;;;22.8;51.0
73422;BME280;61637;47.760;-122.022;2023-07-31T00:26:01;101930.339;;;22.7;52.0
73422;BME280;61637;47.760;-122.022;2023-07-31T00:28:01;101930.339;;;22.7;52.0
73422;BME280;61637;47.760;-122.022;2023-07-31T00:30:01;101930.339;;;22.7;53.0
73422;BME280;61637;47.760;-122.022;2023-07-31T00:32:01;101930.339;;;22.6;53.0
73422;BME280;61637;47.760;-122.022;2023-07-31T00:34:01;101930.339;;;22.5;54.0
73422;BME280;61637;47.760;-122.022;2023-07-31T00:36:01;101930.339;;;22.4;55.0
73422;BME280;61637;47.760;-122.022;2023-07-31T00:38:01;101930.339;;;22.3;55.0
73422;BME280;61637;47.760;-122.022;2023-07-31T00:40:01;101930.339;;;22.3;55.0
73422;BME280;61637;47.760;-122.022;2023-07-31T00:42:01;101930.339;;;22.2;56.0
73422;BME280;61637;47.760;-122.022;2023-07-31T00:44:01;101930.339;;;22.1;54.0
73422;BME280;61637;47.760;-122.022;2023-07-31T00:46:01;101930.339;;;22.1;55.0
73422;BME280;61637;47.760;-122.022;2023-07-31T00:48:01;101930.339;;;22.0;56.0
73422;BME280;61637;47.760;-122.022;2023-07-31T00:50:01;101930.339;;;22.0;56.0
73422;BME280;61637;47.760;-122.022;2023-07-31T00:52:01;101930.339;;;21.9;56.0
73422;BME280;61637;47.760;-122.022;2023-07-31T00:54:01;101930.339;;;21.9;58.0
73422;BME280;61637;47.760;-122.022;2023-07-31T00:56:01;101930.339;;;21.8;56.0
73422;BME280;61637;47.760;-122.022;2023-07-31T00:58:01;101930.339;;;21.8;57.0
73422;BME280;61637;47.760;-122.022;2023-07-31T01:00:01;101930.339;;;21.8;57.0
73422;BME280;61637;47.760;-122.022;2023-07-31T01:02:01;101930.339;;;21.7;57.0
73422;BME280;61637;47.760;-122.022;2023-07-31T01:04:01;101930.339;;;21.7;57.0
73422;BME280;61637;47.760;-122.022;2023-07-31T01:06:04;101930.339;;;21.7;56.0
73422;BME280;61637;47.760;-122.022;2023-07-31T01:08:03;101930.339;;;21.8;54.0
73422;BME280;61637;47.760;-122.022;2023-07-31T01:10:02;101930.339;;;21.8;55.0
73422;BME280;61637;47.760;-122.022;2023-07-31T01:12:01;101930.339;;;21.9;54.0
73422;BME280;61637;47.760;-122.022;2023-07-31T01:14:01;101930.339;;;22.0;55.0
73422;BME280;61637;47.760;-122.022;2023-07-31T01:16:01;101930.339;;;22.1;54.0
73422;BME280;61637;47.760;-122.022;2023-07-31T01:18:01;101930.339;;;22.1;54.0
73422;BME280;61637;47.760;-122.022;2023-07-31T01:20:02;101930.339;;;22.2;56.0
73422;BME280;61637;47.760;-122.022;2023-07-31T01:22:11;101930.339;;;22.2;57.0
73422;BME280;61637;47.760;-122.022;2023-07-31T01:24:08;101930.339;;;22.2;56.0
73422;BME280;61637;47.760;-122.022;2023-07-31T01:26:03;101930.339;;;22.3;55.0
73422;BME280;61637;47.760;-122.022;2023-07-31T01:28:02;101930.339;;;22.3;55.0
73422;BME280;61637;47.760;-122.022;2023-07-31T01:30:03;101930.339;;;22.3;55.0
73422;BME280;61637;47.760;-122.022;2023-07-31T01:32:02;101930.339;;;22.3;56.0
73422;BME280;61637;47.760;-122.022;2023-07-31T01:34:01;101930.339;;;22.3;55.0
73422;BME280;61637;47.760;-122.022;2023-07-31T01:36:01;101930.339;;;22.3;57.0
73422;BME280;61637;47.760;-122.022;2023-07-31T01:38:01;101930.339;;;22.3;53.0
73422;BME280;61637;47.760;-122.022;2023-07-31T01:40:01;101930.339;;;22.3;53.0
73422;BME280;61637;47.760;-122.022;2023-07-31T01:42:01;101930.339;;;22.3;55.0
73422;BME280;61637;47.760;-122.022;2023-07-31T01:44:01;101930.339;;;22.4;56.0
73422;BME280;61637;47.760;-122.022;2023-07-31T01:46:01;101930.339;;;22.4;54.0
73422;BME280;61637;47.760;-122.022;2023-07-31T01:48:01;101930.339;;;22.4;54.0
73422;BME280;61637;47.760;-122.022;2023-07-31T01:50:01;101930.339;;;22.4;55.0
73422;BME280;61637;47.760;-122.022;2023-07-31T01:52:01;101930.339;;;22.3;56.0
73422;BME280;61637;47.760;-122.022;2023-07-31T01:54:01;101930.339;;;22.3;55.0
73422;BME280;61637;47.760;-122.022;2023-07-31T01:56:01;101930.339;;;22.2;54.0
73422;BME280;61637;47.760;-122.022;2023-07-31T01:58:01;101930.339;;;22.1;55.0
73422;BME280;61637;47.760;-122.022;2023-07-31T02:00:01;101930.339;;;21.9;55.0
73422;BME280;61637;47.760;-122.022;2023-07-31T02:02:01;101930.339;;;21.9;57.0
73422;BME280;61637;47.760;-122.022;2023-07-31T02:04:01;101930.339;;;21.7;57.0
73422;BME280;61637;47.760;-122.022;2023-07-31T02:06:01;101930.339;;;21.6;56.0
73422;BME280;61637;47.760;-122.022;2023-07-31T02:08:01;101930.339;;;21.5;55.0
73422;BME280;61637;47.760;-122.022;2023-07-31T02:10:01;101930.339;;;21.4;55.0
73422;BME280;61637;47.760;-122.022;2023-07-31T02:12:01;101930.339;;;21.3;54.0
73422;BME280;61637;47.760;-122.022;2023-07-31T02:14:01;101930.339;;;21.3;54.0
73422;BME280;61637;47.760;-122.022;2023-07-31T02:16:01;101930.339;;;21.2;55.0
73422;BME280;61637;47.760;-122.022;2023-07-31T02:18:01;101930.339;;;21.2;57.0
73422;BME280;61637;47.760;-122.022;2023-07-31T02:20:01;101930.339;;;21.1;57.0
73422;BME280;61637;47.760;-122.022;2023-07-31T02:22:01;101930.339;;;20.9;55.0
73422;BME280;61637;47.760;-122.022;2023-07-31T02:24:01;101930.339;;;20.9;55.0
73422;BME280;61637;47.760;-122.022;2023-07-31T02:26:01;101930.339;;;20.8;55.0
73422;BME280;61637;47.760;-122.022;2023-07-31T02:28:01;101930.339;;;20.8;57.0
73422;BME280;61637;47.760;-122.022;2023-07-31T02:30:01;101930.339;;;20.7;58.0
73422;BME280;61637;47.760;-122.022;2023-07-31T02:32:01;101930.339;;;20.7;58.0
73422;BME280;61637;47.760;-122.022;2023-07-31T02:34:01;101930.339;;;20.6;58.0
73422;BME280;61637;47.760;-122.022;2023-07-31T02:36:01;101930.339;;;20.6;58.0
73422;BME280;61637;47.760;-122.022;2023-07-31T02:38:01;101930.339;;;20.4;59.0
73422;BME280;61637;47.760;-122.022;2023-07-31T02:40:01;101930.339;;;20.4;58.0
73422;BME280;61637;47.760;-122.022;2023-07-31T02:42:01;101930.339;;;20.3;59.0
73422;BME280;61637;47.760;-122.022;2023-07-31T02:44:01;101930.339;;;20.3;60.0
73422;BME280;61637;47.760;-122.022;2023-07-31T02:46:01;101930.339;;;20.2;60.0
73422;BME280;61637;47.760;-122.022;2023-07-31T02:48:01;101930.339;;;20.2;61.0
73422;BME280;61637;47.760;-122.022;2023-07-31T02:50:01;101930.339;;;20.1;61.0
73422;BME280;61637;47.760;-122.022;2023-07-31T02:52:01;101930.339;;;20.1;61.0
73422;BME280;61637;47.760;-122.022;2023-07-31T02:54:01;101930.339;;;19.9;60.0
73422;BME280;61637;47.760;-122.022;2023-07-31T02:56:01;101930.339;;;19.9;60.0
73422;BME280;61637;47.760;-122.022;2023-07-31T02:58:01;101930.339;;;19.8;60.0
73422;BME280;61637;47.760;-122.022;2023-07-31T03:00:01;101930.339;;;19.8;61.0
73422;BME280;61637;47.760;-122.022;2023-07-31T03:02:01;101930.339;;;19.7;61.0
73422;BME280;61637;47.760;-122.022;2023-07-31T03:04:01;101930.339;;;19.6;61.0
73422;BME280;61637;47.760;-122.022;2023-07-31T03:06:01;101930.339;;;19.5;60.0
73422;BME280;61637;47.760;-122.022;2023-07-31T03:08:01;101930.339;;;19.4;60.0
73422;BME280;61637;47.760;-122.022;2023-07-31T03:10:01;101930.339;;;19.3;61.0
73422;BME280;61637;47.760;-122.022;2023-07-31T03:12:01;101930.339;;;19.3;61.0
73422;BME280;61637;47.760;-122.022;2023-07-31T03:14:01;101930.339;;;19.2;61.0
73422;BME280;61637;47.760;-122.022;2023-07-31T03:16:01;101930.339;;;19.1;61.0
73422;BME280;61637;47.760;-122.022;2023-07-31T03:18:01;101930.339;;;19.1;62.0
73422;BME280;61637;47.760;-122.022;2023-07-31T03:20:01;101930.339;;;18.9;62.0
73422;BME280;61637;47.760;-122.022;2023-07-31T03:22:01;101930.339;;;18.9;62.0
73422;BME280;61637;47.760;-122.022;2023-07-31T03:24:01;101930.339;;;18.8;62.0
73422;BME280;61637;47.760;-122.022;2023-07-31T03:26:02;101930.339;;;18.7;63.0
73422;BME280;61637;47.760;-122.022;2023-07-31T03:28:01;101930.339;;;18.7;63.0
73422;BME280;61637;47.760;-122.022;2023-07-31T03:30:01;101930.339;;;18.6;63.0
73422;BME280;61637;47.760;-122.022;2023-07-31T03:32:01;101930.339;;;18.6;63.0
73422;BME280;61637;47.760;-122.022;2023-07-31T03:34:01;101930.339;;;18.4;63.0
73422;BME280;61637;47.760;-122.022;2023-07-31T03:36:01;101930.339;;;18.4;64.0
73422;BME280;61637;47.760;-122.022;2023-07-31T03:38:01;101930.339;;;18.3;64.0
73422;BME280;61637;47.760;-122.022;2023-07-31T03:40:01;101930.339;;;18.2;64.0
73422;BME280;61637;47.760;-122.022;2023-07-31T03:42:01;101930.339;;;18.2;64.0
73422;BME280;61637;47.760;-122.022;2023-07-31T03:44:01;101930.339;;;18.1;64.0
73422;BME280;61637;47.760;-122.022;2023-07-31T03:46:01;101930.339;;;18.0;65.0
73422;BME280;61637;47.760;-122.022;2023-07-31T03:48:01;101930.339;;;17.9;64.0
73422;BME280;61637;47.760;-122.022;2023-07-31T03:50:01;101930.339;;;17.8;65.0
73422;BME280;61637;47.760;-122.022;2023-07-31T03:52:01;101930.339;;;17.8;65.0
73422;BME280;61637;47.760;-122.022;2023-07-31T03:54:01;101930.339;;;17.7;66.0
73422;BME280;61637;47.760;-122.022;2023-07-31T03:56:01;101930.339;;;17.6;65.0
73422;BME280;61637;47.760;-122.022;2023-07-31T03:58:01;101930.339;;;17.6;65.0
73422;BME280;61637;47.760;-122.022;2023-07-31T04:00:01;101930.339;;;17.5;66.0
73422;BME280;61637;47.760;-122.022;2023-07-31T04:02:01;101930.339;;;17.4;66.0
73422;BME280;61637;47.760;-122.022;2023-07-31T04:04:01;101930.339;;;17.3;66.0
73422;BME280;61637;47.760;-122.022;2023-07-31T04:06:01;101930.339;;;17.3;67.0
73422;BME280;61637;47.760;-122.022;2023-07-31T04:08:01;101930.339;;;17.2;67.0
73422;BME280;61637;47.760;-122.022;2023-07-31T04:10:01;101930.339;;;17.1;67.0
73422;BME280;61637;47.760;-122.022;2023-07-31T04:12:01;101930.339;;;17.1;67.0
73422;BME280;61637;47.760;-122.022;2023-07-31T04:14:01;101930.339;;;17.0;67.0
73422;BME280;61637;47.760;-122.022;2023-07-31T04:16:01;102268.97799999999;;;16.9;67.0
73422;BME280;61637;47.760;-122.022;2023-07-31T04:18:01;102268.97799999999;;;16.9;67.0
73422;BME280;61637;47.760;-122.022;2023-07-31T04:20:01;102268.97799999999;;;16.8;68.0
73422;BME280;61637;47.760;-122.022;2023-07-31T04:22:01;102268.97799999999;;;16.8;68.0
73422;BME280;61637;47.760;-122.022;2023-07-31T04:24:01;102268.97799999999;;;16.7;68.0
73422;BME280;61637;47.760;-122.022;2023-07-31T04:26:01;102268.97799999999;;;16.7;67.0
73422;BME280;61637;47.760;-122.022;2023-07-31T04:28:01;102268.97799999999;;;16.6;67.0
73422;BME280;61637;47.760;-122.022;2023-07-31T04:30:01;102268.97799999999;;;16.6;67.0
73422;BME280;61637;47.760;-122.022;2023-07-31T04:32:01;102268.97799999999;;;16.5;67.0
73422;BME280;61637;47.760;-122.022;2023-07-31T04:34:01;102268.97799999999;;;16.4;67.0
73422;BME280;61637;47.760;-122.022;2023-07-31T04:36:01;102268.97799999999;;;16.4;67.0
73422;BME280;61637;47.760;-122.022;2023-07-31T04:38:01;102268.97799999999;;;16.4;67.0
73422;BME280;61637;47.760;-122.022;2023-07-31T04:40:01;102268.97799999999;;;16.3;68.0
73422;BME280;61637;47.760;-122.022;2023-07-31T04:42:01;102268.97799999999;;;16.3;68.0
73422;BME280;61637;47.760;-122.022;2023-07-31T04:44:01;102268.97799999999;;;16.3;68.0
73422;BME280;61637;47.760;-122.022;2023-07-31T04:46:01;102268.97799999999;;;16.2;68.0
73422;BME280;61637;47.760;-122.022;2023-07-31T04:48:01;102268.97799999999;;;16.2;68.0
73422;BME280;61637;47.760;-122.022;2023-07-31T04:50:01;102268.97799999999;;;16.1;68.0
73422;BME280;61637;47.760;-122.022;2023-07-31T04:52:01;102268.97799999999;;;16.1;68.0
73422;BME280;61637;47.760;-122.022;2023-07-31T04:54:01;102268.97799999999;;;16.1;68.0
73422;BME280;61637;47.760;-122.022;2023-07-31T04:56:01;102268.97799999999;;;16.0;69.0
73422;BME280;61637;47.760;-122.022;2023-07-31T04:58:01;102268.97799999999;;;16.0;69.0
73422;BME280;61637;47.760;-122.022;2023-07-31T05:00:01;102268.97799999999;;;15.9;69.0
73422;BME280;61637;47.760;-122.022;2023-07-31T05:02:01;102268.97799999999;;;15.9;70.0
73422;BME280;61637;47.760;-122.022;2023-07-31T05:04:01;102268.97799999999;;;15.9;70.0
73422;BME280;61637;47.760;-122.022;2023-07-31T05:06:01;102268.97799999999;;;15.8;70.0
73422;BME280;61637;47.760;-122.022;2023-07-31T05:08:01;102268.97799999999;;;15.7;70.0
73422;BME280;61637;47.760;-122.022;2023-07-31T05:10:01;102268.97799999999;;;15.7;71.0
73422;BME280;61637;47.760;-122.022;2023-07-31T05:12:01;102268.97799999999;;;15.7;71.0
73422;BME280;61637;47.760;-122.022;2023-07-31T05:14:01;102268.97799999999;;;15.6;71.0
73422;BME280;61637;47.760;-122.022;2023-07-31T05:16:01;102268.97799999999;;;15.5;71.0
73422;BME280;61637;47.760;-122.022;2023-07-31T05:18:01;102268.97799999999;;;15.4;71.0
73422;BME280;61637;47.760;-122.022;2023-07-31T05:20:01;102268.97799999999;;;15.4;72.0
73422;BME280;61637;47.760;-122.022;2023-07-31T05:22:01;102268.97799999999;;;15.3;72.0
73422;BME280;61637;47.760;-122.022;2023-07-31T05:24:01;102268.97799999999;;;15.3;72.0
73422;BME280;61637;47.760;-122.022;2023-07-31T05:26:03;102268.97799999999;;;15.2;73.0
73422;BME280;61637;47.760;-122.022;2023-07-31T05:28:01;101930.339;;;15.2;73.0
73422;BME280;61637;47.760;-122.022;2023-07-31T05:30:01;102268.97799999999;;;15.1;73.0
73422;BME280;61637;47.760;-122.022;2023-07-31T05:32:01;102268.97799999999;;;15.0;73.0
73422;BME280;61637;47.760;-122.022;2023-07-31T05:34:01;102268.97799999999;;;14.9;74.0
73422;BME280;61637;47.760;-122.022;2023-07-31T05:36:01;102268.97799999999;;;14.9;74.0
73422;BME280;61637;47.760;-122.022;2023-07-31T05:38:01;102268.97799999999;;;14.9;74.0
73422;BME280;61637;47.760;-122.022;2023-07-31T05:40:01;102268.97799999999;;;14.8;74.0
73422;BME280;61637;47.760;-122.022;2023-07-31T05:42:01;102268.97799999999;;;14.8;74.0
73422;BME280;61637;47.760;-122.022;2023-07-31T05:44:01;101930.339;;;14.7;74.0
73422;BME280;61637;47.760;-122.022;2023-07-31T05:46:01;102268.97799999999;;;14.7;75.0
73422;BME280;61637;47.760;-122.022;2023-07-31T05:48:01;101930.339;;;14.7;75.0
73422;BME280;61637;47.760;-122.022;2023-07-31T05:50:01;102268.97799999999;;;14.6;75.0
73422;BME280;61637;47.760;-122.022;2023-07-31T05:52:01;101930.339;;;14.6;75.0
73422;BME280;61637;47.760;-122.022;2023-07-31T05:54:01;101930.339;;;14.6;75.0
73422;BME280;61637;47.760;-122.022;2023-07-31T05:56:01;102268.97799999999;;;14.6;75.0
73422;BME280;61637;47.760;-122.022;2023-07-31T05:58:01;102268.97799999999;;;14.4;75.0
73422;BME280;61637;47.760;-122.022;2023-07-31T06:00:01;102268.97799999999;;;14.4;76.0
73422;BME280;61637;47.760;-122.022;2023-07-31T06:02:01;101930.339;;;14.4;76.0
73422;BME280;61637;47.760;-122.022;2023-07-31T06:04:01;101930.339;;;14.3;76.0
73422;BME280;61637;47.760;-122.022;2023-07-31T06:06:01;102268.97799999999;;;14.3;76.0
73422;BME280;61637;47.760;-122.022;2023-07-31T06:08:01;102268.97799999999;;;14.3;76.0
73422;BME280;61637;47.760;-122.022;2023-07-31T06:10:01;102268.97799999999;;;14.3;76.0
73422;BME280;61637;47.760;-122.022;2023-07-31T06:12:01;102268.97799999999;;;14.3;76.0
73422;BME280;61637;47.760;-122.022;2023-07-31T06:14:01;102268.97799999999;;;14.3;76.0
73422;BME280;61637;47.760;-122.022;2023-07-31T06:16:01;101930.339;;;14.3;76.0
73422;BME280;61637;47.760;-122.022;2023-07-31T06:18:01;102268.97799999999;;;14.2;76.0
73422;BME280;61637;47.760;-122.022;2023-07-31T06:20:01;101930.339;;;14.2;76.0
73422;BME280;61637;47.760;-122.022;2023-07-31T06:22:01;102268.97799999999;;;14.2;76.0
73422;BME280;61637;47.760;-122.022;2023-07-31T06:24:01;101930.339;;;14.2;76.0
73422;BME280;61637;47.760;-122.022;2023-07-31T06:26:01;101930.339;;;14.2;76.0
73422;BME280;61637;47.760;-122.022;2023-07-31T06:28:01;101930.339;;;14.2;76.0
73422;BME280;61637;47.760;-122.022;2023-07-31T06:30:01;101930.339;;;14.1;76.0
73422;BME280;61637;47.760;-122.022;2023-07-31T06:32:01;101930.339;;;14.1;76.0
73422;BME280;61637;47.760;-122.022;2023-07-31T06:34:01;101930.339;;;14.1;77.0
73422;BME280;61637;47.760;-122.022;2023-07-31T06:36:01;102268.97799999999;;;14.1;77.0
73422;BME280;61637;47.760;-122.022;2023-07-31T06:38:01;101930.339;;;14.0;77.0
73422;BME280;61637;47.760;-122.022;2023-07-31T06:40:01;101930.339;;;14.0;77.0
73422;BME280;61637;47.760;-122.022;2023-07-31T06:42:01;101930.339;;;13.9;77.0
73422;BME280;61637;47.760;-122.022;2023-07-31T06:44:01;102268.97799999999;;;13.9;77.0
73422;BME280;61637;47.760;-122.022;2023-07-31T06:46:04;102268.97799999999;;;13.9;77.0
73422;BME280;61637;47.760;-122.022;2023-07-31T06:48:01;101930.339;;;13.8;78.0
73422;BME280;61637;47.760;-122.022;2023-07-31T06:50:01;101930.339;;;13.8;78.0
73422;BME280;61637;47.760;-122.022;2023-07-31T06:52:01;102268.97799999999;;;13.8;78.0
73422;BME280;61637;47.760;-122.022;2023-07-31T07:00:01;101930.339;;;13.7;78.0
73422;BME280;61637;47.760;-122.022;2023-07-31T07:02:01;102268.97799999999;;;13.6;79.0
73422;BME280;61637;47.760;-122.022;2023-07-31T07:04:01;102268.97799999999;;;13.6;79.0
73422;BME280;61637;47.760;-122.022;2023-07-31T07:06:01;102268.97799999999;;;13.5;79.0
73422;BME280;61637;47.760;-122.022;2023-07-31T07:08:01;101930.339;;;13.5;79.0
73422;BME280;61637;47.760;-122.022;2023-07-31T07:10:01;101930.339;;;13.4;79.0
73422;BME280;61637;47.760;-122.022;2023-07-31T07:12:01;101930.339;;;13.4;79.0
73422;BME280;61637;47.760;-122.022;2023-07-31T07:14:01;101930.339;;;13.3;79.0
73422;BME280;61637;47.760;-122.022;2023-07-31T07:16:01;101930.339;;;13.3;79.0
73422;BME280;61637;47.760;-122.022;2023-07-31T07:18:01;101930.339;;;13.3;79.0
73422;BME280;61637;47.760;-122.022;2023-07-31T07:20:01;101930.339;;;13.3;80.0
73422;BME280;61637;47.760;-122.022;2023-07-31T07:22:01;101930.339;;;13.3;80.0
73422;BME280;61637;47.760;-122.022;2023-07-31T07:24:01;101930.339;;;13.3;80.0
73422;BME280;61637;47.760;-122.022;2023-07-31T07:26:01;102268.97799999999;;;13.2;80.0
73422;BME280;61637;47.760;-122.022;2023-07-31T07:28:01;101930.339;;;13.2;80.0
73422;BME280;61637;47.760;-122.022;2023-07-31T07:30:01;102268.97799999999;;;13.2;80.0
73422;BME280;61637;47.760;-122.022;2023-07-31T07:32:01;102268.97799999999;;;13.1;80.0
73422;BME280;61637;47.760;-122.022;2023-07-31T07:34:01;101930.339;;;13.1;80.0
73422;BME280;61637;47.760;-122.022;2023-07-31T07:36:01;102268.97799999999;;;13.1;80.0
73422;BME280;61637;47.760;-122.022;2023-07-31T07:38:01;102268.97799999999;;;13.1;80.0
73422;BME280;61637;47.760;-122.022;2023-07-31T07:40:01;102268.97799999999;;;13.1;80.0
73422;BME280;61637;47.760;-122.022;2023-07-31T07:42:01;102268.97799999999;;;13.1;80.0
73422;BME280;61637;47.760;-122.022;2023-07-31T07:44:01;102268.97799999999;;;13.0;80.0
73422;BME280;61637;47.760;-122.022;2023-07-31T07:46:01;102268.97799999999;;;13.0;80.0
73422;BME280;61637;47.760;-122.022;2023-07-31T07:48:01;102268.97799999999;;;13.0;80.0
73422;BME280;61637;47.760;-122.022;2023-07-31T07:50:01;102268.97799999999;;;13.0;80.0
73422;BME280;61637;47.760;-122.022;2023-07-31T07:52:01;101930.339;;;12.9;80.0
73422;BME280;61637;47.760;-122.022;2023-07-31T07:54:01;101930.339;;;12.9;80.0
73422;BME280;61637;47.760;-122.022;2023-07-31T07:56:01;102268.97799999999;;;12.9;80.0
73422;BME280;61637;47.760;-122.022;2023-07-31T07:58:01;101930.339;;;12.9;80.0
73422;BME280;61637;47.760;-122.022;2023-07-31T08:00:01;102268.97799999999;;;12.8;80.0
73422;BME280;61637;47.760;-122.022;2023-07-31T08:02:01;102268.97799999999;;;12.8;80.0
73422;BME280;61637;47.760;-122.022;2023-07-31T08:04:01;102268.97799999999;;;12.8;79.0
73422;BME280;61637;47.760;-122.022;2023-07-31T08:06:01;102268.97799999999;;;12.8;79.0
73422;BME280;61637;47.760;-122.022;2023-07-31T08:08:01;102268.97799999999;;;12.8;79.0
73422;BME280;61637;47.760;-122.022;2023-07-31T08:10:01;102268.97799999999;;;12.8;79.0
73422;BME280;61637;47.760;-122.022;2023-07-31T08:12:01;102268.97799999999;;;12.8;79.0
73422;BME280;61637;47.760;-122.022;2023-07-31T08:14:01;102268.97799999999;;;12.8;79.0
73422;BME280;61637;47.760;-122.022;2023-07-31T08:16:01;102268.97799999999;;;12.8;79.0
73422;BME280;61637;47.760;-122.022;2023-07-31T08:18:01;102268.97799999999;;;12.8;79.0
73422;BME280;61637;47.760;-122.022;2023-07-31T08:20:01;102268.97799999999;;;12.8;80.0
73422;BME280;61637;47.760;-122.022;2023-07-31T08:22:01;102268.97799999999;;;12.8;80.0
73422;BME280;61637;47.760;-122.022;2023-07-31T08:24:01;102268.97799999999;;;12.8;79.0
73422;BME280;61637;47.760;-122.022;2023-07-31T08:26:01;102268.97799999999;;;12.8;79.0
73422;BME280;61637;47.760;-122.022;2023-07-31T08:28:01;102268.97799999999;;;12.8;79.0
73422;BME280;61637;47.760;-122.022;2023-07-31T08:30:01;102268.97799999999;;;12.8;79.0
73422;BME280;61637;47.760;-122.022;2023-07-31T08:32:01;102268.97799999999;;;12.9;79.0
73422;BME280;61637;47.760;-122.022;2023-07-31T08:34:01;102268.97799999999;;;12.8;80.0
73422;BME280;61637;47.760;-122.022;2023-07-31T08:36:01;102268.97799999999;;;12.8;80.0
73422;BME280;61637;47.760;-122.022;2023-07-31T08:38:01;102268.97799999999;;;12.8;79.0
73422;BME280;61637;47.760;-122.022;2023-07-31T08:40:01;102268.97799999999;;;12.8;80.0
73422;BME280;61637;47.760;-122.022;2023-07-31T08:42:01;102268.97799999999;;;12.8;79.0
73422;BME280;61637;47.760;-122.022;2023-07-31T08:44:01;102268.97799999999;;;12.8;79.0
73422;BME280;61637;47.760;-122.022;2023-07-31T08:46:01;102268.97799999999;;;12.8;79.0
73422;BME280;61637;47.760;-122.022;2023-07-31T08:48:01;102268.97799999999;;;12.8;79.0
73422;BME280;61637;47.760;-122.022;2023-07-31T08:50:01;102268.97799999999;;;12.8;79.0
73422;BME280;61637;47.760;-122.022;2023-07-31T08:52:01;102268.97799999999;;;12.8;80.0
73422;BME280;61637;47.760;-122.022;2023-07-31T08:54:01;102268.97799999999;;;12.8;80.0
73422;BME280;61637;47.760;-122.022;2023-07-31T08:56:01;102268.97799999999;;;12.7;79.0
73422;BME280;61637;47.760;-122.022;2023-07-31T08:58:01;102268.97799999999;;;12.7;80.0
73422;BME280;61637;47.760;-122.022;2023-07-31T09:00:01;102268.97799999999;;;12.7;80.0
73422;BME280;61637;47.760;-122.022;2023-07-31T09:02:03;102268.97799999999;;;12.7;80.0
73422;BME280;61637;47.760;-122.022;2023-07-31T09:04:01;102268.97799999999;;;12.7;80.0
73422;BME280;61637;47.760;-122.022;2023-07-31T09:06:01;102268.97799999999;;;12.7;80.0
73422;BME280;61637;47.760;-122.022;2023-07-31T09:08:01;102268.97799999999;;;12.6;80.0
73422;BME280;61637;47.760;-122.022;2023-07-31T09:10:01;102268.97799999999;;;12.6;80.0
73422;BME280;61637;47.760;-122.022;2023-07-31T09:12:01;102268.97799999999;;;12.6;80.0
73422;BME280;61637;47.760;-122.022;2023-07-31T09:14:01;102268.97799999999;;;12.6;80.0
73422;BME280;61637;47.760;-122.022;2023-07-31T09:16:01;102268.97799999999;;;12.5;80.0
73422;BME280;61637;47.760;-122.022;2023-07-31T09:18:01;102268.97799999999;;;12.5;80.0
73422;BME280;61637;47.760;-122.022;2023-07-31T09:22:01;102268.97799999999;;;12.5;80.0
73422;BME280;61637;47.760;-122.022;2023-07-31T09:24:01;102268.97799999999;;;12.4;80.0
73422;BME280;61637;47.760;-122.022;2023-07-31T09:26:01;102268.97799999999;;;12.4;80.0
73422;BME280;61637;47.760;-122.022;2023-07-31T09:28:02;102268.97799999999;;;12.4;80.0
73422;BME280;61637;47.760;-122.022;2023-07-31T09:30:01;102268.97799999999;;;12.4;81.0
73422;BME280;61637;47.760;-122.022;2023-07-31T09:32:01;102268.97799999999;;;12.4;80.0
73422;BME280;61637;47.760;-122.022;2023-07-31T09:34:01;102268.97799999999;;;12.4;80.0
73422;BME280;61637;47.760;-122.022;2023-07-31T09:36:01;102268.97799999999;;;12.3;80.0
73422;BME280;61637;47.760;-122.022;2023-07-31T09:38:03;102268.97799999999;;;12.3;81.0
73422;BME280;61637;47.760;-122.022;2023-07-31T09:40:01;102268.97799999999;;;12.3;81.0
73422;BME280;61637;47.760;-122.022;2023-07-31T09:42:01;102268.97799999999;;;12.3;81.0
73422;BME280;61637;47.760;-122.022;2023-07-31T09:44:01;102268.97799999999;;;12.3;81.0
73422;BME280;61637;47.760;-122.022;2023-07-31T09:46:01;102268.97799999999;;;12.3;81.0
73422;BME280;61637;47.760;-122.022;2023-07-31T09:48:01;102268.97799999999;;;12.2;80.0
73422;BME280;61637;47.760;-122.022;2023-07-31T09:50:01;101930.339;;;12.2;81.0
73422;BME280;61637;47.760;-122.022;2023-07-31T09:52:01;101930.339;;;12.2;81.0